sensor_id;sensor_type;location;lat;lon;timestamp;pressure;altitude;pressure_sealevel;temperature;humidity
41654;BME280;68687;52.030;7.110;2023-04-27T00:01:10;101321.09;;;2.88;78.99
41654;BME280;68687;52.030;7.110;2023-04-27T00:03:36;101315.31;;;2.83;78.76
41654;BME280;68687;52.030;7.110;2023-04-27T00:06:01;101312.50;;;2.73;78.98
41654;BME280;68687;52.030;7.110;2023-04-27T00:08:27;101314.78;;;2.66;79.23
41654;BME280;68687;52.030;7.110;2023-04-27T00:10:53;101301.50;;;2.66;78.20
41654;BME280;68687;52.030;7.110;2023-04-27T00:13:18;101305.75;;;2.69;76.50
41654;BME280;68687;52.030;7.110;2023-04-27T00:15:43;101314.59;;;2.81;75.79
41654;BME280;68687;52.030;7.110;2023-04-27T00:18:09;101313.38;;;2.85;75.20
41654;BME280;68687;52.030;7.110;2023-04-27T00:20:35;101302.84;;;2.72;75.21
41654;BME280;68687;52.030;7.110;2023-04-27T00:23:00;101315.91;;;2.75;75.78
41654;BME280;68687;52.030;7.110;2023-04-27T00:25:25;101325.31;;;2.79;74.79
41654;BME280;68687;52.030;7.110;2023-04-27T00:27:50;101326.50;;;2.75;74.54
41654;BME280;68687;52.030;7.110;2023-04-27T00:30:16;101324.91;;;2.72;74.76
41654;BME280;68687;52.030;7.110;2023-04-27T00:32:47;101321.50;;;2.59;75.08
41654;BME280;68687;52.030;7.110;2023-04-27T00:35:12;101324.16;;;2.59;74.66
41654;BME280;68687;52.030;7.110;2023-04-27T00:37:41;101329.56;;;2.58;74.87
41654;BME280;68687;52.030;7.110;2023-04-27T00:40:07;101327.28;;;2.53;75.31
41654;BME280;68687;52.030;7.110;2023-04-27T00:42:33;101335.22;;;2.53;75.23
41654;BME280;68687;52.030;7.110;2023-04-27T00:44:59;101325.81;;;2.49;75.80
41654;BME280;68687;52.030;7.110;2023-04-27T00:47:24;101332.06;;;2.48;75.27
41654;BME280;68687;52.030;7.110;2023-04-27T00:49:50;101331.31;;;2.46;74.16
41654;BME280;68687;52.030;7.110;2023-04-27T00:52:15;101332.25;;;2.34;75.34
41654;BME280;68687;52.030;7.110;2023-04-27T00:54:41;101339.22;;;2.35;74.58
41654;BME280;68687;52.030;7.110;2023-04-27T00:57:06;101337.38;;;2.24;74.66
41654;BME280;68687;52.030;7.110;2023-04-27T00:59:32;101336.97;;;2.17;76.95
41654;BME280;68687;52.030;7.110;2023-04-27T01:01:57;101337.53;;;2.10;76.18
41654;BME280;68687;52.030;7.110;2023-04-27T01:04:23;101340.56;;;2.16;74.88
41654;BME280;68687;52.030;7.110;2023-04-27T01:06:48;101340.41;;;2.07;75.74
41654;BME280;68687;52.030;7.110;2023-04-27T01:09:17;101343.91;;;2.07;74.97
41654;BME280;68687;52.030;7.110;2023-04-27T01:11:47;101341.13;;;2.09;74.53
41654;BME280;68687;52.030;7.110;2023-04-27T01:14:18;101342.22;;;2.06;74.77
41654;BME280;68687;52.030;7.110;2023-04-27T01:16:46;101342.16;;;1.95;75.02
41654;BME280;68687;52.030;7.110;2023-04-27T01:19:12;101347.06;;;1.76;78.16
41654;BME280;68687;52.030;7.110;2023-04-27T01:21:37;101334.38;;;1.68;80.53
41654;BME280;68687;52.030;7.110;2023-04-27T01:24:06;101347.28;;;1.60;79.92
41654;BME280;68687;52.030;7.110;2023-04-27T01:26:32;101349.19;;;1.71;77.55
41654;BME280;68687;52.030;7.110;2023-04-27T01:28:57;101349.81;;;1.74;76.09
41654;BME280;68687;52.030;7.110;2023-04-27T01:31:26;101342.50;;;1.78;76.09
41654;BME280;68687;52.030;7.110;2023-04-27T01:33:57;101343.22;;;1.80;75.13
41654;BME280;68687;52.030;7.110;2023-04-27T01:36:22;101351.50;;;1.75;75.07
41654;BME280;68687;52.030;7.110;2023-04-27T01:38:48;101340.53;;;1.69;74.81
41654;BME280;68687;52.030;7.110;2023-04-27T01:41:13;101343.38;;;1.66;75.16
41654;BME280;68687;52.030;7.110;2023-04-27T01:43:38;101351.94;;;1.57;77.50
41654;BME280;68687;52.030;7.110;2023-04-27T01:46:11;101357.16;;;1.45;78.75
41654;BME280;68687;52.030;7.110;2023-04-27T01:48:38;101358.97;;;1.45;78.09
41654;BME280;68687;52.030;7.110;2023-04-27T01:51:03;101367.53;;;1.48;76.23
41654;BME280;68687;52.030;7.110;2023-04-27T01:53:32;101355.38;;;1.46;77.38
41654;BME280;68687;52.030;7.110;2023-04-27T01:55:58;101361.41;;;1.48;77.03
41654;BME280;68687;52.030;7.110;2023-04-27T01:58:26;101347.97;;;1.38;76.68
41654;BME280;68687;52.030;7.110;2023-04-27T02:00:54;101357.38;;;1.42;76.16
41654;BME280;68687;52.030;7.110;2023-04-27T02:03:19;101347.53;;;1.32;78.13
41654;BME280;68687;52.030;7.110;2023-04-27T02:05:45;101351.22;;;1.29;77.44
41654;BME280;68687;52.030;7.110;2023-04-27T02:08:12;101361.06;;;1.27;79.26
41654;BME280;68687;52.030;7.110;2023-04-27T02:10:37;101360.88;;;1.17;79.42
41654;BME280;68687;52.030;7.110;2023-04-27T02:13:02;101366.47;;;1.13;79.18
41654;BME280;68687;52.030;7.110;2023-04-27T02:15:27;101361.28;;;1.24;77.22
41654;BME280;68687;52.030;7.110;2023-04-27T02:17:53;101367.53;;;1.23;77.71
41654;BME280;68687;52.030;7.110;2023-04-27T02:20:19;101375.06;;;1.16;78.09
41654;BME280;68687;52.030;7.110;2023-04-27T02:22:47;101377.59;;;1.18;77.81
41654;BME280;68687;52.030;7.110;2023-04-27T02:25:13;101366.13;;;1.05;79.29
41654;BME280;68687;52.030;7.110;2023-04-27T02:27:39;101363.50;;;1.05;78.62
41654;BME280;68687;52.030;7.110;2023-04-27T02:30:11;101371.63;;;1.02;78.70
41654;BME280;68687;52.030;7.110;2023-04-27T02:32:36;101362.75;;;1.03;78.56
41654;BME280;68687;52.030;7.110;2023-04-27T02:35:02;101359.78;;;0.95;78.77
41654;BME280;68687;52.030;7.110;2023-04-27T02:37:28;101355.56;;;0.92;78.87
41654;BME280;68687;52.030;7.110;2023-04-27T02:39:54;101355.97;;;0.86;78.76
41654;BME280;68687;52.030;7.110;2023-04-27T02:42:22;101354.03;;;0.75;80.61
41654;BME280;68687;52.030;7.110;2023-04-27T02:44:47;101353.19;;;0.62;81.49
41654;BME280;68687;52.030;7.110;2023-04-27T02:47:13;101344.63;;;0.58;81.41
41654;BME280;68687;52.030;7.110;2023-04-27T02:49:41;101344.81;;;0.55;80.89
41654;BME280;68687;52.030;7.110;2023-04-27T02:52:06;101340.38;;;0.56;80.46
41654;BME280;68687;52.030;7.110;2023-04-27T02:54:32;101340.50;;;0.67;78.86
41654;BME280;68687;52.030;7.110;2023-04-27T02:56:57;101342.63;;;0.62;79.65
41654;BME280;68687;52.030;7.110;2023-04-27T02:59:22;101341.41;;;0.53;81.08
41654;BME280;68687;52.030;7.110;2023-04-27T03:01:48;101339.81;;;0.51;81.23
41654;BME280;68687;52.030;7.110;2023-04-27T03:04:13;101334.94;;;0.45;80.45
41654;BME280;68687;52.030;7.110;2023-04-27T03:06:42;101328.97;;;0.55;82.24
41654;BME280;68687;52.030;7.110;2023-04-27T03:09:10;101330.06;;;0.39;82.79
41654;BME280;68687;52.030;7.110;2023-04-27T03:11:37;101331.56;;;0.43;81.11
41654;BME280;68687;52.030;7.110;2023-04-27T03:14:03;101338.53;;;0.44;80.31
41654;BME280;68687;52.030;7.110;2023-04-27T03:16:30;101331.56;;;0.43;81.07
41654;BME280;68687;52.030;7.110;2023-04-27T03:18:56;101341.19;;;0.44;80.34
41654;BME280;68687;52.030;7.110;2023-04-27T03:21:24;101337.78;;;0.42;79.55
41654;BME280;68687;52.030;7.110;2023-04-27T03:23:51;101334.50;;;0.38;80.54
41654;BME280;68687;52.030;7.110;2023-04-27T03:26:16;101333.47;;;0.41;79.63
41654;BME280;68687;52.030;7.110;2023-04-27T03:28:41;101334.41;;;0.40;81.18
41654;BME280;68687;52.030;7.110;2023-04-27T03:31:08;101334.81;;;0.34;81.63
41654;BME280;68687;52.030;7.110;2023-04-27T03:33:34;101340.84;;;0.36;80.71
41654;BME280;68687;52.030;7.110;2023-04-27T03:36:01;101332.59;;;0.27;81.76
41654;BME280;68687;52.030;7.110;2023-04-27T03:38:27;101323.41;;;0.06;83.53
41654;BME280;68687;52.030;7.110;2023-04-27T03:41:02;101333.38;;;0.15;82.68
41654;BME280;68687;52.030;7.110;2023-04-27T03:43:27;101336.75;;;0.17;83.46
41654;BME280;68687;52.030;7.110;2023-04-27T03:45:53;101340.09;;;0.07;82.73
41654;BME280;68687;52.030;7.110;2023-04-27T03:48:19;101344.97;;;0.13;82.23
41654;BME280;68687;52.030;7.110;2023-04-27T03:50:45;101345.06;;;0.11;82.17
41654;BME280;68687;52.030;7.110;2023-04-27T03:53:10;101353.53;;;0.16;80.79
41654;BME280;68687;52.030;7.110;2023-04-27T03:55:40;101355.34;;;0.16;80.85
41654;BME280;68687;52.030;7.110;2023-04-27T03:58:06;101354.88;;;0.09;81.00
41654;BME280;68687;52.030;7.110;2023-04-27T04:00:35;101354.34;;;0.04;81.57
41654;BME280;68687;52.030;7.110;2023-04-27T04:03:01;101352.56;;;0.05;80.81
41654;BME280;68687;52.030;7.110;2023-04-27T04:05:27;101365.47;;;-0.05;81.41
41654;BME280;68687;52.030;7.110;2023-04-27T04:07:52;101359.72;;;0.03;80.49
41654;BME280;68687;52.030;7.110;2023-04-27T04:10:17;101355.09;;;0.06;79.53
41654;BME280;68687;52.030;7.110;2023-04-27T04:12:43;101364.69;;;0.07;80.33
41654;BME280;68687;52.030;7.110;2023-04-27T04:15:08;101367.66;;;0.03;79.98
41654;BME280;68687;52.030;7.110;2023-04-27T04:17:33;101367.66;;;0.03;79.89
41654;BME280;68687;52.030;7.110;2023-04-27T04:19:59;101359.88;;;-0.01;83.64
41654;BME280;68687;52.030;7.110;2023-04-27T04:22:25;101369.75;;;-0.17;85.93
41654;BME280;68687;52.030;7.110;2023-04-27T04:24:50;101362.31;;;-0.24;84.62
41654;BME280;68687;52.030;7.110;2023-04-27T04:27:22;101365.31;;;-0.16;84.10
41654;BME280;68687;52.030;7.110;2023-04-27T04:29:47;101373.78;;;-0.11;82.65
41654;BME280;68687;52.030;7.110;2023-04-27T04:32:13;101373.59;;;-0.08;80.89
41654;BME280;68687;52.030;7.110;2023-04-27T04:34:41;101380.00;;;0.02;80.03
41654;BME280;68687;52.030;7.110;2023-04-27T04:37:10;101378.09;;;0.04;79.45
41654;BME280;68687;52.030;7.110;2023-04-27T04:39:35;101384.88;;;0.08;81.18
41654;BME280;68687;52.030;7.110;2023-04-27T04:42:01;101388.56;;;0.06;80.42
41654;BME280;68687;52.030;7.110;2023-04-27T04:44:28;101395.25;;;0.11;79.82
41654;BME280;68687;52.030;7.110;2023-04-27T04:46:53;101383.63;;;0.14;81.09
41654;BME280;68687;52.030;7.110;2023-04-27T04:49:19;101383.84;;;0.11;80.87
41654;BME280;68687;52.030;7.110;2023-04-27T04:51:47;101374.75;;;0.15;83.81
41654;BME280;68687;52.030;7.110;2023-04-27T04:54:12;101385.53;;;0.12;82.58
41654;BME280;68687;52.030;7.110;2023-04-27T04:56:41;101379.66;;;0.21;81.18
41654;BME280;68687;52.030;7.110;2023-04-27T04:59:09;101382.25;;;0.35;80.75
41654;BME280;68687;52.030;7.110;2023-04-27T05:01:35;101380.00;;;0.56;83.57
41654;BME280;68687;52.030;7.110;2023-04-27T05:04:03;101378.75;;;0.61;82.48
41654;BME280;68687;52.030;7.110;2023-04-27T05:06:29;101377.09;;;0.73;82.22
41654;BME280;68687;52.030;7.110;2023-04-27T05:08:54;101382.00;;;1.05;82.70
41654;BME280;68687;52.030;7.110;2023-04-27T05:11:22;101383.50;;;1.21;83.36
41654;BME280;68687;52.030;7.110;2023-04-27T05:13:51;101393.69;;;1.40;82.83
41654;BME280;68687;52.030;7.110;2023-04-27T05:16:19;101402.44;;;1.53;82.38
41654;BME280;68687;52.030;7.110;2023-04-27T05:18:48;101401.69;;;1.77;82.39
41654;BME280;68687;52.030;7.110;2023-04-27T05:21:16;101407.38;;;1.96;81.80
41654;BME280;68687;52.030;7.110;2023-04-27T05:23:45;101404.97;;;2.17;81.12
41654;BME280;68687;52.030;7.110;2023-04-27T05:26:14;101410.47;;;2.27;81.03
41654;BME280;68687;52.030;7.110;2023-04-27T05:28:40;101403.16;;;2.54;80.63
41654;BME280;68687;52.030;7.110;2023-04-27T05:31:05;101408.00;;;2.60;80.36
41654;BME280;68687;52.030;7.110;2023-04-27T05:33:31;101406.47;;;2.69;80.40
41654;BME280;68687;52.030;7.110;2023-04-27T05:36:02;101408.03;;;2.95;79.17
41654;BME280;68687;52.030;7.110;2023-04-27T05:38:27;101403.56;;;2.96;81.26
41654;BME280;68687;52.030;7.110;2023-04-27T05:41:02;101409.47;;;3.34;78.76
41654;BME280;68687;52.030;7.110;2023-04-27T05:43:27;101418.94;;;3.61;78.58
41654;BME280;68687;52.030;7.110;2023-04-27T05:45:53;101412.66;;;3.95;77.63
41654;BME280;68687;52.030;7.110;2023-04-27T05:48:18;101412.16;;;4.01;78.72
41654;BME280;68687;52.030;7.110;2023-04-27T05:51:03;101416.69;;;4.44;76.24
41654;BME280;68687;52.030;7.110;2023-04-27T05:53:33;101417.56;;;4.77;75.61
41654;BME280;68687;52.030;7.110;2023-04-27T05:55:58;101416.75;;;4.97;75.67
41654;BME280;68687;52.030;7.110;2023-04-27T05:58:25;101419.34;;;5.08;75.88
41654;BME280;68687;52.030;7.110;2023-04-27T06:00:50;101420.53;;;5.36;75.11
41654;BME280;68687;52.030;7.110;2023-04-27T06:03:19;101414.88;;;5.30;77.18
41654;BME280;68687;52.030;7.110;2023-04-27T06:05:44;101413.78;;;5.83;72.69
41654;BME280;68687;52.030;7.110;2023-04-27T06:08:10;101410.75;;;5.98;72.39
41654;BME280;68687;52.030;7.110;2023-04-27T06:10:36;101416.50;;;6.33;67.70
41654;BME280;68687;52.030;7.110;2023-04-27T06:13:02;101416.16;;;6.17;70.64
41654;BME280;68687;52.030;7.110;2023-04-27T06:15:27;101411.53;;;6.19;67.52
41654;BME280;68687;52.030;7.110;2023-04-27T06:17:55;101415.06;;;6.19;67.51
41654;BME280;68687;52.030;7.110;2023-04-27T06:20:20;101414.78;;;6.23;66.26
41654;BME280;68687;52.030;7.110;2023-04-27T06:22:46;101412.31;;;6.50;67.34
41654;BME280;68687;52.030;7.110;2023-04-27T06:25:14;101410.63;;;6.49;65.96
41654;BME280;68687;52.030;7.110;2023-04-27T06:27:40;101409.69;;;6.60;65.22
41654;BME280;68687;52.030;7.110;2023-04-27T06:30:06;101408.69;;;6.80;67.91
41654;BME280;68687;52.030;7.110;2023-04-27T06:32:31;101412.88;;;7.11;64.26
41654;BME280;68687;52.030;7.110;2023-04-27T06:34:57;101409.50;;;7.29;63.41
41654;BME280;68687;52.030;7.110;2023-04-27T06:37:22;101405.03;;;7.20;63.03
41654;BME280;68687;52.030;7.110;2023-04-27T06:39:47;101408.53;;;7.10;63.02
41654;BME280;68687;52.030;7.110;2023-04-27T06:42:12;101404.63;;;7.61;62.36
41654;BME280;68687;52.030;7.110;2023-04-27T06:44:38;101414.22;;;7.54;60.43
41654;BME280;68687;52.030;7.110;2023-04-27T06:47:12;101413.00;;;7.39;60.07
41654;BME280;68687;52.030;7.110;2023-04-27T06:49:40;101405.22;;;7.55;60.36
41654;BME280;68687;52.030;7.110;2023-04-27T06:52:12;101408.69;;;7.65;59.57
41654;BME280;68687;52.030;7.110;2023-04-27T06:54:37;101408.81;;;8.11;59.81
41654;BME280;68687;52.030;7.110;2023-04-27T06:57:03;101409.38;;;8.42;57.85
41654;BME280;68687;52.030;7.110;2023-04-27T06:59:28;101398.31;;;7.99;57.93
41654;BME280;68687;52.030;7.110;2023-04-27T07:01:53;101392.25;;;8.34;56.04
41654;BME280;68687;52.030;7.110;2023-04-27T07:04:18;101392.44;;;8.51;55.88
41654;BME280;68687;52.030;7.110;2023-04-27T07:06:44;101403.13;;;8.68;56.81
41654;BME280;68687;52.030;7.110;2023-04-27T07:09:15;101391.47;;;8.42;55.31
41654;BME280;68687;52.030;7.110;2023-04-27T07:11:41;101401.91;;;8.63;55.05
41654;BME280;68687;52.030;7.110;2023-04-27T07:14:09;101397.91;;;9.03;54.92
41654;BME280;68687;52.030;7.110;2023-04-27T07:16:35;101402.75;;;8.99;55.33
41654;BME280;68687;52.030;7.110;2023-04-27T07:19:03;101398.06;;;9.19;56.03
41654;BME280;68687;52.030;7.110;2023-04-27T07:21:31;101399.78;;;8.84;53.34
41654;BME280;68687;52.030;7.110;2023-04-27T07:23:57;101409.03;;;9.08;52.22
41654;BME280;68687;52.030;7.110;2023-04-27T07:26:25;101407.19;;;8.90;51.87
41654;BME280;68687;52.030;7.110;2023-04-27T07:28:54;101403.88;;;9.32;51.82
41654;BME280;68687;52.030;7.110;2023-04-27T07:31:23;101402.16;;;8.87;50.18
41654;BME280;68687;52.030;7.110;2023-04-27T07:33:52;101403.97;;;8.87;52.72
41654;BME280;68687;52.030;7.110;2023-04-27T07:36:17;101400.31;;;8.70;50.31
41654;BME280;68687;52.030;7.110;2023-04-27T07:38:42;101400.69;;;9.11;50.64
41654;BME280;68687;52.030;7.110;2023-04-27T07:41:11;101407.75;;;9.38;49.86
41654;BME280;68687;52.030;7.110;2023-04-27T07:43:36;101402.28;;;9.47;49.57
41654;BME280;68687;52.030;7.110;2023-04-27T07:46:01;101406.28;;;9.43;49.96
41654;BME280;68687;52.030;7.110;2023-04-27T07:48:27;101414.25;;;9.35;49.79
41654;BME280;68687;52.030;7.110;2023-04-27T07:50:56;101403.59;;;10.03;47.05
41654;BME280;68687;52.030;7.110;2023-04-27T07:53:22;101407.91;;;9.88;49.38
41654;BME280;68687;52.030;7.110;2023-04-27T07:55:47;101412.84;;;10.51;49.33
41654;BME280;68687;52.030;7.110;2023-04-27T07:58:12;101420.75;;;10.52;48.20
41654;BME280;68687;52.030;7.110;2023-04-27T08:00:41;101417.56;;;10.15;46.01
41654;BME280;68687;52.030;7.110;2023-04-27T08:03:12;101421.34;;;10.30;47.49
41654;BME280;68687;52.030;7.110;2023-04-27T08:05:37;101417.88;;;10.54;47.26
41654;BME280;68687;52.030;7.110;2023-04-27T08:08:03;101418.56;;;10.48;47.94
41654;BME280;68687;52.030;7.110;2023-04-27T08:10:28;101417.56;;;10.57;43.84
41654;BME280;68687;52.030;7.110;2023-04-27T08:12:56;101413.53;;;10.53;44.44
41654;BME280;68687;52.030;7.110;2023-04-27T08:15:21;101417.72;;;10.56;44.29
41654;BME280;68687;52.030;7.110;2023-04-27T08:17:47;101427.63;;;10.63;45.72
41654;BME280;68687;52.030;7.110;2023-04-27T08:20:12;101413.91;;;10.91;46.31
41654;BME280;68687;52.030;7.110;2023-04-27T08:22:38;101414.28;;;11.04;45.10
41654;BME280;68687;52.030;7.110;2023-04-27T08:25:05;101415.44;;;11.01;42.13
41654;BME280;68687;52.030;7.110;2023-04-27T08:27:31;101408.56;;;11.07;43.71
41654;BME280;68687;52.030;7.110;2023-04-27T08:29:57;101411.03;;;11.65;42.81
41654;BME280;68687;52.030;7.110;2023-04-27T08:32:24;101420.66;;;11.27;43.31
41654;BME280;68687;52.030;7.110;2023-04-27T08:34:50;101413.56;;;11.42;41.29
41654;BME280;68687;52.030;7.110;2023-04-27T08:37:15;101422.66;;;11.17;41.37
41654;BME280;68687;52.030;7.110;2023-04-27T08:39:46;101424.66;;;11.56;40.07
41654;BME280;68687;52.030;7.110;2023-04-27T08:42:13;101412.22;;;11.55;39.99
41654;BME280;68687;52.030;7.110;2023-04-27T08:44:44;101411.69;;;11.67;41.75
41654;BME280;68687;52.030;7.110;2023-04-27T08:47:10;101415.25;;;11.43;40.21
41654;BME280;68687;52.030;7.110;2023-04-27T08:49:38;101411.53;;;11.85;42.25
41654;BME280;68687;52.030;7.110;2023-04-27T08:52:20;101402.91;;;12.37;39.56
41654;BME280;68687;52.030;7.110;2023-04-27T08:54:48;101415.97;;;12.09;38.80
41654;BME280;68687;52.030;7.110;2023-04-27T08:57:14;101407.34;;;12.22;42.24
41654;BME280;68687;52.030;7.110;2023-04-27T08:59:41;101405.47;;;12.22;37.58
41654;BME280;68687;52.030;7.110;2023-04-27T09:02:18;101408.13;;;12.30;38.88
41654;BME280;68687;52.030;7.110;2023-04-27T09:04:44;101414.63;;;12.75;38.80
41654;BME280;68687;52.030;7.110;2023-04-27T09:07:19;101410.59;;;11.29;38.43
41654;BME280;68687;52.030;7.110;2023-04-27T09:09:45;101406.34;;;11.59;38.71
41654;BME280;68687;52.030;7.110;2023-04-27T09:14:42;101399.53;;;12.89;38.56
41654;BME280;68687;52.030;7.110;2023-04-27T09:17:08;101403.41;;;12.63;38.50
41654;BME280;68687;52.030;7.110;2023-04-27T09:19:33;101403.38;;;12.94;38.81
41654;BME280;68687;52.030;7.110;2023-04-27T09:22:14;101395.19;;;12.88;37.98
41654;BME280;68687;52.030;7.110;2023-04-27T09:24:49;101401.34;;;13.86;37.74
41654;BME280;68687;52.030;7.110;2023-04-27T09:27:22;101387.97;;;13.41;38.77
41654;BME280;68687;52.030;7.110;2023-04-27T09:29:47;101390.06;;;13.68;36.54
41654;BME280;68687;52.030;7.110;2023-04-27T09:32:16;101388.44;;;13.29;36.56
41654;BME280;68687;52.030;7.110;2023-04-27T09:34:52;101378.81;;;13.65;41.13
41654;BME280;68687;52.030;7.110;2023-04-27T09:37:18;101381.41;;;13.58;37.00
41654;BME280;68687;52.030;7.110;2023-04-27T09:39:44;101379.56;;;14.03;37.92
41654;BME280;68687;52.030;7.110;2023-04-27T09:42:11;101381.97;;;13.68;38.00
41654;BME280;68687;52.030;7.110;2023-04-27T09:44:37;101376.66;;;12.85;38.19
41654;BME280;68687;52.030;7.110;2023-04-27T09:47:03;101375.69;;;12.24;39.61
41654;BME280;68687;52.030;7.110;2023-04-27T09:49:28;101372.53;;;13.20;38.01
41654;BME280;68687;52.030;7.110;2023-04-27T09:51:55;101371.31;;;13.22;38.51
41654;BME280;68687;52.030;7.110;2023-04-27T09:54:30;101378.50;;;13.30;37.02
41654;BME280;68687;52.030;7.110;2023-04-27T10:00:08;101369.66;;;13.13;36.79
41654;BME280;68687;52.030;7.110;2023-04-27T10:08:24;101374.47;;;12.57;36.13
41654;BME280;68687;52.030;7.110;2023-04-27T10:10:52;101366.03;;;12.37;37.31
41654;BME280;68687;52.030;7.110;2023-04-27T10:13:23;101366.81;;;13.67;36.18
41654;BME280;68687;52.030;7.110;2023-04-27T10:15:48;101363.56;;;13.42;35.56
41654;BME280;68687;52.030;7.110;2023-04-27T10:18:49;101359.97;;;14.30;34.33
41654;BME280;68687;52.030;7.110;2023-04-27T10:21:12;101356.31;;;13.43;35.10
41654;BME280;68687;52.030;7.110;2023-04-27T10:23:50;101350.34;;;13.47;36.01
41654;BME280;68687;52.030;7.110;2023-04-27T10:26:23;101346.44;;;13.50;36.36
41654;BME280;68687;52.030;7.110;2023-04-27T10:29:04;101353.97;;;13.99;36.45
41654;BME280;68687;52.030;7.110;2023-04-27T10:31:44;101348.94;;;13.66;33.55
41654;BME280;68687;52.030;7.110;2023-04-27T10:34:15;101347.00;;;13.60;34.51
41654;BME280;68687;52.030;7.110;2023-04-27T10:36:44;101344.03;;;13.55;34.86
41654;BME280;68687;52.030;7.110;2023-04-27T10:39:18;101343.06;;;13.18;34.61
41654;BME280;68687;52.030;7.110;2023-04-27T10:41:54;101334.91;;;13.71;33.63
41654;BME280;68687;52.030;7.110;2023-04-27T10:44:25;101346.44;;;13.50;34.73
41654;BME280;68687;52.030;7.110;2023-04-27T10:46:58;101335.34;;;13.89;35.36
41654;BME280;68687;52.030;7.110;2023-04-27T10:49:28;101332.44;;;14.05;34.01
41654;BME280;68687;52.030;7.110;2023-04-27T10:52:00;101334.69;;;14.38;34.66
41654;BME280;68687;52.030;7.110;2023-04-27T10:54:29;101339.75;;;13.46;34.72
41654;BME280;68687;52.030;7.110;2023-04-27T10:57:15;101330.25;;;12.75;34.35
41654;BME280;68687;52.030;7.110;2023-04-27T10:59:52;101322.97;;;13.36;35.01
41654;BME280;68687;52.030;7.110;2023-04-27T11:02:28;101329.50;;;13.41;35.32
41654;BME280;68687;52.030;7.110;2023-04-27T11:04:54;101324.16;;;12.81;35.48
41654;BME280;68687;52.030;7.110;2023-04-27T11:07:26;101318.44;;;13.36;34.72
41654;BME280;68687;52.030;7.110;2023-04-27T11:09:53;101315.28;;;13.62;35.15
41654;BME280;68687;52.030;7.110;2023-04-27T11:12:25;101323.75;;;14.25;35.90
41654;BME280;68687;52.030;7.110;2023-04-27T11:14:58;101317.78;;;14.29;35.28
41654;BME280;68687;52.030;7.110;2023-04-27T11:17:33;101317.44;;;14.53;33.35
41654;BME280;68687;52.030;7.110;2023-04-27T11:19:58;101322.97;;;13.95;34.29
41654;BME280;68687;52.030;7.110;2023-04-27T11:22:24;101320.47;;;14.29;34.37
41654;BME280;68687;52.030;7.110;2023-04-27T11:24:50;101326.50;;;13.21;33.21
41654;BME280;68687;52.030;7.110;2023-04-27T11:27:16;101320.50;;;13.11;33.41
41654;BME280;68687;52.030;7.110;2023-04-27T11:29:44;101316.13;;;13.48;34.09
41654;BME280;68687;52.030;7.110;2023-04-27T11:32:20;101322.66;;;13.16;33.20
41654;BME280;68687;52.030;7.110;2023-04-27T11:34:53;101315.16;;;13.41;33.03
41654;BME280;68687;52.030;7.110;2023-04-27T11:37:23;101309.97;;;13.69;35.07
41654;BME280;68687;52.030;7.110;2023-04-27T11:39:50;101318.50;;;14.38;32.93
41654;BME280;68687;52.030;7.110;2023-04-27T11:42:27;101315.81;;;14.02;32.13
41654;BME280;68687;52.030;7.110;2023-04-27T11:45:04;101328.28;;;14.24;32.73
41654;BME280;68687;52.030;7.110;2023-04-27T11:47:34;101322.34;;;13.63;33.05
41654;BME280;68687;52.030;7.110;2023-04-27T11:50:04;101321.78;;;13.97;34.71
41654;BME280;68687;52.030;7.110;2023-04-27T11:52:39;101319.38;;;13.43;32.98
41654;BME280;68687;52.030;7.110;2023-04-27T11:55:04;101314.47;;;13.09;32.74
41654;BME280;68687;52.030;7.110;2023-04-27T11:57:32;101312.41;;;13.11;33.76
41654;BME280;68687;52.030;7.110;2023-04-27T11:59:59;101316.25;;;12.79;33.41
41654;BME280;68687;52.030;7.110;2023-04-27T12:02:27;101307.84;;;12.97;34.59
41654;BME280;68687;52.030;7.110;2023-04-27T12:04:53;101301.53;;;12.90;35.00
41654;BME280;68687;52.030;7.110;2023-04-27T12:07:25;101299.56;;;12.98;35.24
41654;BME280;68687;52.030;7.110;2023-04-27T12:09:50;101297.03;;;12.59;33.99
41654;BME280;68687;52.030;7.110;2023-04-27T12:12:15;101294.88;;;12.55;35.24
41654;BME280;68687;52.030;7.110;2023-04-27T12:14:43;101292.44;;;12.68;35.50
41654;BME280;68687;52.030;7.110;2023-04-27T12:17:08;101290.94;;;12.65;36.01
41654;BME280;68687;52.030;7.110;2023-04-27T12:19:34;101287.81;;;12.77;34.68
41654;BME280;68687;52.030;7.110;2023-04-27T12:22:01;101290.84;;;12.36;34.19
41654;BME280;68687;52.030;7.110;2023-04-27T12:24:29;101294.94;;;12.24;33.22
41654;BME280;68687;52.030;7.110;2023-04-27T12:26:54;101284.72;;;12.19;32.88
41654;BME280;68687;52.030;7.110;2023-04-27T12:29:26;101292.31;;;12.16;34.58
41654;BME280;68687;52.030;7.110;2023-04-27T12:31:52;101286.72;;;11.94;34.97
41654;BME280;68687;52.030;7.110;2023-04-27T12:34:17;101288.53;;;12.25;35.57
41654;BME280;68687;52.030;7.110;2023-04-27T12:36:43;101283.56;;;12.14;36.85
41654;BME280;68687;52.030;7.110;2023-04-27T12:39:15;101295.00;;;11.76;35.35
41654;BME280;68687;52.030;7.110;2023-04-27T12:41:45;101288.78;;;11.84;36.94
41654;BME280;68687;52.030;7.110;2023-04-27T12:44:17;101288.78;;;11.84;35.45
41654;BME280;68687;52.030;7.110;2023-04-27T12:46:44;101281.28;;;12.02;36.62
41654;BME280;68687;52.030;7.110;2023-04-27T12:49:10;101278.69;;;11.86;36.68
41654;BME280;68687;52.030;7.110;2023-04-27T12:51:37;101274.66;;;12.13;37.04
41654;BME280;68687;52.030;7.110;2023-04-27T12:54:03;101277.75;;;12.33;35.46
41654;BME280;68687;52.030;7.110;2023-04-27T12:56:28;101279.50;;;12.18;36.92
41654;BME280;68687;52.030;7.110;2023-04-27T12:58:54;101283.47;;;12.53;38.52
41654;BME280;68687;52.030;7.110;2023-04-27T13:01:20;101275.38;;;12.07;36.32
41654;BME280;68687;52.030;7.110;2023-04-27T13:03:51;101273.81;;;12.13;36.47
41654;BME280;68687;52.030;7.110;2023-04-27T13:06:17;101276.72;;;12.34;36.10
41654;BME280;68687;52.030;7.110;2023-04-27T13:08:42;101285.47;;;12.28;35.73